sensor_id;sensor_type;location;lat;lon;timestamp;P1;durP1;ratioP1;P2;durP2;ratioP2
21339;SDS011;10828;47.064;15.422;2022-09-21T00:00:14;2.63;;;1.20;;
21339;SDS011;10828;47.064;15.422;2022-09-21T00:02:47;3.53;;;1.23;;
21339;SDS011;10828;47.064;15.422;2022-09-21T00:05:13;1.77;;;1.00;;
21339;SDS011;10828;47.064;15.422;2022-09-21T00:07:42;4.90;;;1.30;;
21339;SDS011;10828;47.064;15.422;2022-09-21T00:10:09;3.37;;;1.00;;
21339;SDS011;10828;47.064;15.422;2022-09-21T00:12:35;4.13;;;1.30;;
21339;SDS011;10828;47.064;15.422;2022-09-21T00:15:05;2.93;;;1.10;;
21339;SDS011;10828;47.064;15.422;2022-09-21T00:17:33;4.33;;;1.30;;
21339;SDS011;10828;47.064;15.422;2022-09-21T00:20:02;2.87;;;1.00;;
21339;SDS011;10828;47.064;15.422;2022-09-21T00:22:33;3.03;;;1.20;;
21339;SDS011;10828;47.064;15.422;2022-09-21T00:25:00;2.80;;;1.10;;
21339;SDS011;10828;47.064;15.422;2022-09-21T00:30:05;2.53;;;1.10;;
21339;SDS011;10828;47.064;15.422;2022-09-21T00:32:34;4.97;;;0.93;;
21339;SDS011;10828;47.064;15.422;2022-09-21T00:35:00;6.23;;;1.03;;
21339;SDS011;10828;47.064;15.422;2022-09-21T00:37:33;3.00;;;1.17;;
21339;SDS011;10828;47.064;15.422;2022-09-21T00:39:59;4.87;;;1.03;;
21339;SDS011;10828;47.064;15.422;2022-09-21T00:42:29;2.63;;;1.17;;
21339;SDS011;10828;47.064;15.422;2022-09-21T00:44:56;4.03;;;1.30;;
21339;SDS011;10828;47.064;15.422;2022-09-21T00:49:53;4.33;;;1.60;;
21339;SDS011;10828;47.064;15.422;2022-09-21T00:52:21;2.37;;;1.10;;
21339;SDS011;10828;47.064;15.422;2022-09-21T00:54:53;2.17;;;0.97;;
21339;SDS011;10828;47.064;15.422;2022-09-21T00:57:21;3.53;;;1.33;;
21339;SDS011;10828;47.064;15.422;2022-09-21T00:59:55;2.77;;;1.20;;
21339;SDS011;10828;47.064;15.422;2022-09-21T01:02:23;2.13;;;1.00;;
21339;SDS011;10828;47.064;15.422;2022-09-21T01:04:51;3.87;;;1.37;;
21339;SDS011;10828;47.064;15.422;2022-09-21T01:07:21;2.50;;;1.00;;
21339;SDS011;10828;47.064;15.422;2022-09-21T01:09:51;2.67;;;1.07;;
21339;SDS011;10828;47.064;15.422;2022-09-21T01:17:17;2.90;;;1.10;;
21339;SDS011;10828;47.064;15.422;2022-09-21T01:19:51;3.83;;;1.50;;
21339;SDS011;10828;47.064;15.422;2022-09-21T01:22:30;2.73;;;1.20;;
21339;SDS011;10828;47.064;15.422;2022-09-21T01:25:14;2.23;;;1.10;;
21339;SDS011;10828;47.064;15.422;2022-09-21T01:30:10;3.87;;;1.37;;
21339;SDS011;10828;47.064;15.422;2022-09-21T01:32:40;3.10;;;1.43;;
21339;SDS011;10828;47.064;15.422;2022-09-21T01:35:18;2.03;;;0.87;;
21339;SDS011;10828;47.064;15.422;2022-09-21T01:40:35;4.37;;;1.60;;
21339;SDS011;10828;47.064;15.422;2022-09-21T01:43:11;3.37;;;1.20;;
21339;SDS011;10828;47.064;15.422;2022-09-21T01:45:48;2.97;;;1.10;;
21339;SDS011;10828;47.064;15.422;2022-09-21T01:48:16;3.57;;;1.17;;
21339;SDS011;10828;47.064;15.422;2022-09-21T01:50:44;2.43;;;1.00;;
21339;SDS011;10828;47.064;15.422;2022-09-21T01:53:22;3.93;;;1.43;;
21339;SDS011;10828;47.064;15.422;2022-09-21T01:55:58;3.60;;;1.10;;
21339;SDS011;10828;47.064;15.422;2022-09-21T01:58:30;4.20;;;1.20;;
21339;SDS011;10828;47.064;15.422;2022-09-21T02:01:13;3.37;;;1.50;;
21339;SDS011;10828;47.064;15.422;2022-09-21T02:03:42;13.13;;;5.27;;
21339;SDS011;10828;47.064;15.422;2022-09-21T02:06:10;5.67;;;1.60;;
21339;SDS011;10828;47.064;15.422;2022-09-21T02:08:36;5.90;;;1.57;;
21339;SDS011;10828;47.064;15.422;2022-09-21T02:11:10;5.17;;;1.27;;
21339;SDS011;10828;47.064;15.422;2022-09-21T02:13:39;5.07;;;0.90;;
21339;SDS011;10828;47.064;15.422;2022-09-21T02:24:23;2.17;;;0.83;;
21339;SDS011;10828;47.064;15.422;2022-09-21T02:27:01;2.73;;;1.20;;
21339;SDS011;10828;47.064;15.422;2022-09-21T02:43:35;6.83;;;1.57;;
21339;SDS011;10828;47.064;15.422;2022-09-21T02:46:09;6.93;;;2.07;;
21339;SDS011;10828;47.064;15.422;2022-09-21T02:48:37;3.57;;;1.53;;
21339;SDS011;10828;47.064;15.422;2022-09-21T02:51:51;5.00;;;1.40;;
21339;SDS011;10828;47.064;15.422;2022-09-21T02:53:51;3.47;;;1.30;;
21339;SDS011;10828;47.064;15.422;2022-09-21T02:56:18;2.80;;;1.10;;
21339;SDS011;10828;47.064;15.422;2022-09-21T02:58:46;4.93;;;1.67;;
21339;SDS011;10828;47.064;15.422;2022-09-21T03:01:14;2.67;;;0.90;;
21339;SDS011;10828;47.064;15.422;2022-09-21T03:03:41;7.70;;;1.60;;
21339;SDS011;10828;47.064;15.422;2022-09-21T03:06:07;3.17;;;1.07;;
21339;SDS011;10828;47.064;15.422;2022-09-21T03:08:34;3.03;;;1.10;;
21339;SDS011;10828;47.064;15.422;2022-09-21T03:11:02;3.63;;;1.20;;
21339;SDS011;10828;47.064;15.422;2022-09-21T03:13:29;2.90;;;1.10;;
21339;SDS011;10828;47.064;15.422;2022-09-21T03:16:03;5.87;;;1.33;;
21339;SDS011;10828;47.064;15.422;2022-09-21T03:18:29;2.80;;;1.10;;
21339;SDS011;10828;47.064;15.422;2022-09-21T03:20:56;2.43;;;1.40;;
21339;SDS011;10828;47.064;15.422;2022-09-21T03:23:28;5.67;;;1.57;;
21339;SDS011;10828;47.064;15.422;2022-09-21T03:25:54;4.80;;;1.10;;
21339;SDS011;10828;47.064;15.422;2022-09-21T03:28:20;3.23;;;1.17;;
21339;SDS011;10828;47.064;15.422;2022-09-21T03:30:47;5.03;;;1.13;;
21339;SDS011;10828;47.064;15.422;2022-09-21T03:33:16;6.20;;;1.33;;
21339;SDS011;10828;47.064;15.422;2022-09-21T03:35:48;6.50;;;1.47;;
21339;SDS011;10828;47.064;15.422;2022-09-21T03:38:14;5.03;;;1.33;;
21339;SDS011;10828;47.064;15.422;2022-09-21T03:40:43;3.57;;;1.30;;
21339;SDS011;10828;47.064;15.422;2022-09-21T03:43:10;5.20;;;1.10;;
21339;SDS011;10828;47.064;15.422;2022-09-21T03:45:36;2.57;;;1.10;;
21339;SDS011;10828;47.064;15.422;2022-09-21T03:48:05;5.80;;;1.30;;
21339;SDS011;10828;47.064;15.422;2022-09-21T03:53:02;3.80;;;1.20;;
21339;SDS011;10828;47.064;15.422;2022-09-21T03:55:30;8.20;;;1.50;;
21339;SDS011;10828;47.064;15.422;2022-09-21T03:57:57;10.10;;;1.83;;
21339;SDS011;10828;47.064;15.422;2022-09-21T04:00:24;5.83;;;1.30;;
21339;SDS011;10828;47.064;15.422;2022-09-21T04:02:50;3.67;;;1.50;;
21339;SDS011;10828;47.064;15.422;2022-09-21T04:05:16;6.77;;;1.77;;
21339;SDS011;10828;47.064;15.422;2022-09-21T04:07:46;7.80;;;1.63;;
21339;SDS011;10828;47.064;15.422;2022-09-21T04:10:13;7.87;;;2.20;;
21339;SDS011;10828;47.064;15.422;2022-09-21T04:12:40;5.63;;;1.87;;
21339;SDS011;10828;47.064;15.422;2022-09-21T04:15:09;4.57;;;1.80;;
21339;SDS011;10828;47.064;15.422;2022-09-21T04:17:36;5.30;;;1.63;;
21339;SDS011;10828;47.064;15.422;2022-09-21T04:20:03;2.43;;;1.33;;
21339;SDS011;10828;47.064;15.422;2022-09-21T04:22:29;5.13;;;1.53;;
21339;SDS011;10828;47.064;15.422;2022-09-21T04:25:03;6.67;;;2.03;;
21339;SDS011;10828;47.064;15.422;2022-09-21T04:27:31;4.67;;;1.30;;
21339;SDS011;10828;47.064;15.422;2022-09-21T04:29:58;8.63;;;1.70;;
21339;SDS011;10828;47.064;15.422;2022-09-21T04:32:24;6.57;;;1.53;;
21339;SDS011;10828;47.064;15.422;2022-09-21T04:34:50;4.63;;;1.47;;
21339;SDS011;10828;47.064;15.422;2022-09-21T04:37:16;5.13;;;1.90;;
21339;SDS011;10828;47.064;15.422;2022-09-21T04:39:42;7.53;;;1.83;;
21339;SDS011;10828;47.064;15.422;2022-09-21T04:42:10;8.73;;;2.03;;
21339;SDS011;10828;47.064;15.422;2022-09-21T04:44:36;9.80;;;1.67;;
21339;SDS011;10828;47.064;15.422;2022-09-21T04:47:04;9.47;;;1.80;;
21339;SDS011;10828;47.064;15.422;2022-09-21T04:49:33;4.13;;;1.50;;
21339;SDS011;10828;47.064;15.422;2022-09-21T04:51:59;4.50;;;1.73;;
21339;SDS011;10828;47.064;15.422;2022-09-21T04:54:25;8.87;;;2.10;;
21339;SDS011;10828;47.064;15.422;2022-09-21T04:57:09;8.93;;;1.90;;
21339;SDS011;10828;47.064;15.422;2022-09-21T04:59:38;6.20;;;1.63;;
21339;SDS011;10828;47.064;15.422;2022-09-21T05:02:05;6.93;;;1.90;;
21339;SDS011;10828;47.064;15.422;2022-09-21T05:04:32;6.10;;;2.17;;
21339;SDS011;10828;47.064;15.422;2022-09-21T05:06:59;9.57;;;2.80;;
21339;SDS011;10828;47.064;15.422;2022-09-21T05:09:28;8.97;;;2.00;;
21339;SDS011;10828;47.064;15.422;2022-09-21T05:12:12;4.77;;;1.97;;
21339;SDS011;10828;47.064;15.422;2022-09-21T05:14:38;6.17;;;1.93;;
21339;SDS011;10828;47.064;15.422;2022-09-21T05:17:06;6.27;;;2.03;;
21339;SDS011;10828;47.064;15.422;2022-09-21T05:19:34;8.37;;;2.23;;
21339;SDS011;10828;47.064;15.422;2022-09-21T05:22:00;4.90;;;2.07;;
21339;SDS011;10828;47.064;15.422;2022-09-21T05:24:26;4.47;;;2.13;;
21339;SDS011;10828;47.064;15.422;2022-09-21T05:26:53;7.67;;;2.37;;
21339;SDS011;10828;47.064;15.422;2022-09-21T05:29:21;7.57;;;1.90;;
21339;SDS011;10828;47.064;15.422;2022-09-21T05:31:56;5.63;;;1.97;;
21339;SDS011;10828;47.064;15.422;2022-09-21T05:34:27;11.60;;;2.40;;
21339;SDS011;10828;47.064;15.422;2022-09-21T05:37:09;11.43;;;2.50;;
21339;SDS011;10828;47.064;15.422;2022-09-21T05:39:39;7.73;;;1.83;;
21339;SDS011;10828;47.064;15.422;2022-09-21T05:42:07;6.60;;;2.37;;
21339;SDS011;10828;47.064;15.422;2022-09-21T05:44:34;7.50;;;2.50;;
21339;SDS011;10828;47.064;15.422;2022-09-21T05:47:12;10.83;;;2.50;;
21339;SDS011;10828;47.064;15.422;2022-09-21T05:55:13;9.90;;;2.07;;
21339;SDS011;10828;47.064;15.422;2022-09-21T05:58:06;10.33;;;2.70;;
21339;SDS011;10828;47.064;15.422;2022-09-21T06:03:30;5.27;;;2.20;;
21339;SDS011;10828;47.064;15.422;2022-09-21T06:05:57;5.07;;;2.00;;
21339;SDS011;10828;47.064;15.422;2022-09-21T06:08:23;11.97;;;2.63;;
21339;SDS011;10828;47.064;15.422;2022-09-21T06:10:50;16.97;;;2.70;;
21339;SDS011;10828;47.064;15.422;2022-09-21T06:13:18;11.70;;;2.83;;
21339;SDS011;10828;47.064;15.422;2022-09-21T06:15:47;10.63;;;2.37;;
21339;SDS011;10828;47.064;15.422;2022-09-21T06:18:14;8.60;;;2.43;;
21339;SDS011;10828;47.064;15.422;2022-09-21T06:20:40;8.37;;;2.13;;
21339;SDS011;10828;47.064;15.422;2022-09-21T06:23:07;16.43;;;2.67;;
21339;SDS011;10828;47.064;15.422;2022-09-21T06:25:35;8.80;;;2.40;;
21339;SDS011;10828;47.064;15.422;2022-09-21T06:28:02;9.57;;;2.40;;
21339;SDS011;10828;47.064;15.422;2022-09-21T06:30:28;9.97;;;2.80;;
21339;SDS011;10828;47.064;15.422;2022-09-21T06:32:57;8.17;;;2.47;;
21339;SDS011;10828;47.064;15.422;2022-09-21T06:35:25;10.03;;;2.30;;
21339;SDS011;10828;47.064;15.422;2022-09-21T06:37:51;9.70;;;2.33;;
21339;SDS011;10828;47.064;15.422;2022-09-21T06:40:21;9.97;;;2.67;;
21339;SDS011;10828;47.064;15.422;2022-09-21T06:42:47;6.90;;;2.77;;
21339;SDS011;10828;47.064;15.422;2022-09-21T06:45:13;10.17;;;2.57;;
21339;SDS011;10828;47.064;15.422;2022-09-21T06:47:45;6.57;;;2.00;;
21339;SDS011;10828;47.064;15.422;2022-09-21T06:50:12;6.70;;;2.50;;
21339;SDS011;10828;47.064;15.422;2022-09-21T06:52:38;8.93;;;2.47;;
21339;SDS011;10828;47.064;15.422;2022-09-21T06:55:07;8.53;;;2.53;;
21339;SDS011;10828;47.064;15.422;2022-09-21T06:57:35;17.13;;;2.40;;
21339;SDS011;10828;47.064;15.422;2022-09-21T07:00:07;7.07;;;1.73;;
21339;SDS011;10828;47.064;15.422;2022-09-21T07:02:33;16.77;;;2.87;;
21339;SDS011;10828;47.064;15.422;2022-09-21T07:05:00;13.97;;;2.47;;
21339;SDS011;10828;47.064;15.422;2022-09-21T07:07:26;13.77;;;2.53;;
21339;SDS011;10828;47.064;15.422;2022-09-21T07:09:54;7.73;;;2.30;;
21339;SDS011;10828;47.064;15.422;2022-09-21T07:12:29;6.57;;;1.60;;
21339;SDS011;10828;47.064;15.422;2022-09-21T07:14:59;8.97;;;1.53;;
21339;SDS011;10828;47.064;15.422;2022-09-21T07:17:31;8.67;;;1.43;;
21339;SDS011;10828;47.064;15.422;2022-09-21T07:20:00;3.87;;;1.07;;
21339;SDS011;10828;47.064;15.422;2022-09-21T07:22:33;8.43;;;0.93;;
21339;SDS011;10828;47.064;15.422;2022-09-21T07:27:30;6.23;;;1.57;;
21339;SDS011;10828;47.064;15.422;2022-09-21T07:29:57;4.67;;;1.10;;
21339;SDS011;10828;47.064;15.422;2022-09-21T07:32:23;3.93;;;1.03;;
21339;SDS011;10828;47.064;15.422;2022-09-21T07:34:52;2.87;;;0.97;;
21339;SDS011;10828;47.064;15.422;2022-09-21T07:37:21;4.57;;;0.87;;
21339;SDS011;10828;47.064;15.422;2022-09-21T07:39:48;2.97;;;1.00;;
21339;SDS011;10828;47.064;15.422;2022-09-21T07:42:15;2.30;;;1.00;;
21339;SDS011;10828;47.064;15.422;2022-09-21T07:44:52;3.33;;;1.20;;
21339;SDS011;10828;47.064;15.422;2022-09-21T07:47:19;6.93;;;1.10;;
21339;SDS011;10828;47.064;15.422;2022-09-21T07:49:45;2.53;;;0.73;;
21339;SDS011;10828;47.064;15.422;2022-09-21T07:52:12;3.80;;;1.10;;
21339;SDS011;10828;47.064;15.422;2022-09-21T07:54:41;1.93;;;0.90;;
21339;SDS011;10828;47.064;15.422;2022-09-21T07:57:07;2.90;;;1.10;;
21339;SDS011;10828;47.064;15.422;2022-09-21T07:59:52;1.80;;;0.93;;
21339;SDS011;10828;47.064;15.422;2022-09-21T08:02:22;2.53;;;1.07;;
21339;SDS011;10828;47.064;15.422;2022-09-21T08:04:50;4.13;;;0.90;;
21339;SDS011;10828;47.064;15.422;2022-09-21T08:07:17;2.80;;;1.13;;
21339;SDS011;10828;47.064;15.422;2022-09-21T08:09:45;2.30;;;0.70;;
21339;SDS011;10828;47.064;15.422;2022-09-21T08:12:16;3.20;;;1.00;;
21339;SDS011;10828;47.064;15.422;2022-09-21T08:14:45;5.40;;;1.30;;
21339;SDS011;10828;47.064;15.422;2022-09-21T08:17:14;4.53;;;1.10;;
21339;SDS011;10828;47.064;15.422;2022-09-21T08:19:40;3.40;;;0.90;;
21339;SDS011;10828;47.064;15.422;2022-09-21T08:22:06;1.60;;;0.73;;
21339;SDS011;10828;47.064;15.422;2022-09-21T08:24:32;4.00;;;0.80;;
21339;SDS011;10828;47.064;15.422;2022-09-21T08:26:59;2.37;;;0.87;;
21339;SDS011;10828;47.064;15.422;2022-09-21T08:29:28;2.87;;;0.83;;
21339;SDS011;10828;47.064;15.422;2022-09-21T08:31:54;4.37;;;1.00;;
21339;SDS011;10828;47.064;15.422;2022-09-21T08:34:21;3.30;;;0.70;;
21339;SDS011;10828;47.064;15.422;2022-09-21T08:36:49;2.43;;;0.90;;
21339;SDS011;10828;47.064;15.422;2022-09-21T08:39:22;2.20;;;0.67;;
21339;SDS011;10828;47.064;15.422;2022-09-21T08:42:01;2.60;;;0.70;;
21339;SDS011;10828;47.064;15.422;2022-09-21T08:44:39;1.47;;;0.67;;
21339;SDS011;10828;47.064;15.422;2022-09-21T08:49:54;5.00;;;0.97;;
21339;SDS011;10828;47.064;15.422;2022-09-21T08:52:23;6.10;;;1.10;;
21339;SDS011;10828;47.064;15.422;2022-09-21T08:54:57;1.50;;;0.73;;
21339;SDS011;10828;47.064;15.422;2022-09-21T08:57:30;2.03;;;0.80;;
21339;SDS011;10828;47.064;15.422;2022-09-21T08:59:57;1.87;;;0.70;;
21339;SDS011;10828;47.064;15.422;2022-09-21T09:15:14;1.43;;;0.90;;
21339;SDS011;10828;47.064;15.422;2022-09-21T09:17:53;3.83;;;0.90;;
21339;SDS011;10828;47.064;15.422;2022-09-21T09:22:58;1.00;;;0.50;;
21339;SDS011;10828;47.064;15.422;2022-09-21T09:25:32;2.60;;;0.70;;
21339;SDS011;10828;47.064;15.422;2022-09-21T09:28:00;1.23;;;0.57;;
21339;SDS011;10828;47.064;15.422;2022-09-21T09:30:32;2.23;;;0.60;;
21339;SDS011;10828;47.064;15.422;2022-09-21T09:35:29;4.80;;;0.80;;
21339;SDS011;10828;47.064;15.422;2022-09-21T09:37:59;2.40;;;1.10;;
21339;SDS011;10828;47.064;15.422;2022-09-21T09:41:06;1.97;;;0.80;;
21339;SDS011;10828;47.064;15.422;2022-09-21T09:46:02;4.80;;;0.97;;
21339;SDS011;10828;47.064;15.422;2022-09-21T09:51:01;1.93;;;0.60;;
21339;SDS011;10828;47.064;15.422;2022-09-21T09:53:27;2.50;;;0.60;;
21339;SDS011;10828;47.064;15.422;2022-09-21T09:55:53;2.03;;;0.50;;
21339;SDS011;10828;47.064;15.422;2022-09-21T10:00:54;4.07;;;0.53;;
21339;SDS011;10828;47.064;15.422;2022-09-21T10:03:24;0.90;;;0.40;;
21339;SDS011;10828;47.064;15.422;2022-09-21T10:05:51;3.47;;;0.70;;
21339;SDS011;10828;47.064;15.422;2022-09-21T10:08:26;5.93;;;0.70;;
21339;SDS011;10828;47.064;15.422;2022-09-21T10:10:52;2.30;;;0.43;;
21339;SDS011;10828;47.064;15.422;2022-09-21T10:15:57;2.00;;;0.60;;
21339;SDS011;10828;47.064;15.422;2022-09-21T10:18:33;1.23;;;0.43;;
21339;SDS011;10828;47.064;15.422;2022-09-21T10:21:01;0.37;;;0.30;;
21339;SDS011;10828;47.064;15.422;2022-09-21T10:23:28;1.37;;;0.70;;
21339;SDS011;10828;47.064;15.422;2022-09-21T10:25:56;0.97;;;0.50;;
21339;SDS011;10828;47.064;15.422;2022-09-21T10:28:22;3.03;;;0.70;;
21339;SDS011;10828;47.064;15.422;2022-09-21T10:30:49;1.00;;;0.40;;
21339;SDS011;10828;47.064;15.422;2022-09-21T10:33:19;1.47;;;0.67;;
21339;SDS011;10828;47.064;15.422;2022-09-21T10:35:49;2.47;;;0.70;;
21339;SDS011;10828;47.064;15.422;2022-09-21T10:38:17;2.20;;;0.70;;
21339;SDS011;10828;47.064;15.422;2022-09-21T10:40:43;2.73;;;0.60;;
21339;SDS011;10828;47.064;15.422;2022-09-21T10:45:55;1.87;;;0.60;;
21339;SDS011;10828;47.064;15.422;2022-09-21T10:48:22;1.20;;;0.60;;
21339;SDS011;10828;47.064;15.422;2022-09-21T10:50:49;1.47;;;0.40;;
21339;SDS011;10828;47.064;15.422;2022-09-21T10:53:25;1.83;;;0.67;;
21339;SDS011;10828;47.064;15.422;2022-09-21T10:55:56;1.50;;;0.60;;
21339;SDS011;10828;47.064;15.422;2022-09-21T10:58:23;1.57;;;0.50;;
21339;SDS011;10828;47.064;15.422;2022-09-21T11:00:50;4.27;;;1.10;;
21339;SDS011;10828;47.064;15.422;2022-09-21T11:06:03;2.13;;;0.70;;
21339;SDS011;10828;47.064;15.422;2022-09-21T11:08:33;1.83;;;0.70;;
21339;SDS011;10828;47.064;15.422;2022-09-21T11:13:35;1.53;;;0.40;;
21339;SDS011;10828;47.064;15.422;2022-09-21T11:16:11;2.53;;;0.70;;
21339;SDS011;10828;47.064;15.422;2022-09-21T11:23:40;1.40;;;0.60;;
21339;SDS011;10828;47.064;15.422;2022-09-21T11:26:14;2.47;;;0.73;;
21339;SDS011;10828;47.064;15.422;2022-09-21T11:28:44;0.87;;;0.40;;
21339;SDS011;10828;47.064;15.422;2022-09-21T11:36:32;0.70;;;0.40;;
21339;SDS011;10828;47.064;15.422;2022-09-21T11:39:01;2.83;;;0.70;;
21339;SDS011;10828;47.064;15.422;2022-09-21T11:44:19;1.23;;;0.50;;
21339;SDS011;10828;47.064;15.422;2022-09-21T11:47:01;0.93;;;0.40;;
21339;SDS011;10828;47.064;15.422;2022-09-21T11:49:36;8.93;;;3.93;;
21339;SDS011;10828;47.064;15.422;2022-09-21T11:54:44;3.83;;;0.80;;
21339;SDS011;10828;47.064;15.422;2022-09-21T12:12:37;1.17;;;0.43;;
21339;SDS011;10828;47.064;15.422;2022-09-21T12:17:56;1.47;;;0.50;;
21339;SDS011;10828;47.064;15.422;2022-09-21T12:23:03;4.13;;;0.67;;
21339;SDS011;10828;47.064;15.422;2022-09-21T12:25:36;0.70;;;0.40;;
21339;SDS011;10828;47.064;15.422;2022-09-21T12:28:17;0.97;;;0.40;;
21339;SDS011;10828;47.064;15.422;2022-09-21T12:30:46;4.23;;;0.77;;
21339;SDS011;10828;47.064;15.422;2022-09-21T12:33:35;2.43;;;0.50;;
21339;SDS011;10828;47.064;15.422;2022-09-21T12:36:10;1.63;;;0.20;;
21339;SDS011;10828;47.064;15.422;2022-09-21T12:38:44;1.50;;;0.50;;
21339;SDS011;10828;47.064;15.422;2022-09-21T12:41:26;2.70;;;0.50;;
21339;SDS011;10828;47.064;15.422;2022-09-21T12:46:52;2.30;;;0.30;;
21339;SDS011;10828;47.064;15.422;2022-09-21T12:49:19;1.13;;;0.30;;
21339;SDS011;10828;47.064;15.422;2022-09-21T12:51:49;1.47;;;0.40;;
21339;SDS011;10828;47.064;15.422;2022-09-21T12:54:34;4.57;;;1.03;;
21339;SDS011;10828;47.064;15.422;2022-09-21T13:05:06;1.23;;;0.50;;
21339;SDS011;10828;47.064;15.422;2022-09-21T13:10:40;0.53;;;0.30;;
21339;SDS011;10828;47.064;15.422;2022-09-21T13:13:03;1.07;;;0.30;;
21339;SDS011;10828;47.064;15.422;2022-09-21T13:15:38;1.40;;;0.60;;
21339;SDS011;10828;47.064;15.422;2022-09-21T13:18:06;1.53;;;0.40;;
21339;SDS011;10828;47.064;15.422;2022-09-21T13:20:42;2.40;;;0.90;;
21339;SDS011;10828;47.064;15.422;2022-09-21T13:23:20;1.07;;;0.40;;
21339;SDS011;10828;47.064;15.422;2022-09-21T13:25:47;1.40;;;0.50;;
21339;SDS011;10828;47.064;15.422;2022-09-21T13:30:43;0.93;;;0.23;;
21339;SDS011;10828;47.064;15.422;2022-09-21T13:40:55;2.50;;;0.80;;
21339;SDS011;10828;47.064;15.422;2022-09-21T13:43:22;2.77;;;0.50;;
21339;SDS011;10828;47.064;15.422;2022-09-21T13:45:50;0.33;;;0.27;;
21339;SDS011;10828;47.064;15.422;2022-09-21T13:48:23;0.60;;;0.20;;
21339;SDS011;10828;47.064;15.422;2022-09-21T13:50:57;3.90;;;0.70;;
21339;SDS011;10828;47.064;15.422;2022-09-21T13:53:35;0.70;;;0.30;;
21339;SDS011;10828;47.064;15.422;2022-09-21T13:56:05;2.10;;;0.33;;
21339;SDS011;10828;47.064;15.422;2022-09-21T13:58:33;5.13;;;1.00;;
21339;SDS011;10828;47.064;15.422;2022-09-21T14:01:03;6.87;;;0.80;;
21339;SDS011;10828;47.064;15.422;2022-09-21T14:03:33;5.53;;;0.80;;
21339;SDS011;10828;47.064;15.422;2022-09-21T14:06:12;1.13;;;0.30;;
21339;SDS011;10828;47.064;15.422;2022-09-21T14:08:58;4.87;;;0.70;;
21339;SDS011;10828;47.064;15.422;2022-09-21T14:27:43;0.80;;;0.30;;
21339;SDS011;10828;47.064;15.422;2022-09-21T14:33:04;3.20;;;0.80;;
21339;SDS011;10828;47.064;15.422;2022-09-21T14:35:37;2.90;;;0.30;;
21339;SDS011;10828;47.064;15.422;2022-09-21T14:40:44;3.63;;;1.23;;
21339;SDS011;10828;47.064;15.422;2022-09-21T14:43:13;4.60;;;0.60;;
21339;SDS011;10828;47.064;15.422;2022-09-21T14:56:39;1.20;;;0.47;;
21339;SDS011;10828;47.064;15.422;2022-09-21T15:02:15;1.73;;;0.47;;
21339;SDS011;10828;47.064;15.422;2022-09-21T15:05:40;0.70;;;0.40;;
21339;SDS011;10828;47.064;15.422;2022-09-21T15:07:36;1.67;;;0.40;;
21339;SDS011;10828;47.064;15.422;2022-09-21T15:10:31;3.50;;;0.60;;
21339;SDS011;10828;47.064;15.422;2022-09-21T15:13:23;1.03;;;0.40;;
21339;SDS011;10828;47.064;15.422;2022-09-21T15:18:41;4.80;;;0.53;;
21339;SDS011;10828;47.064;15.422;2022-09-21T15:21:17;2.27;;;0.50;;
21339;SDS011;10828;47.064;15.422;2022-09-21T15:23:47;7.83;;;1.30;;
21339;SDS011;10828;47.064;15.422;2022-09-21T15:26:22;6.80;;;0.67;;
21339;SDS011;10828;47.064;15.422;2022-09-21T15:29:03;4.80;;;0.73;;
21339;SDS011;10828;47.064;15.422;2022-09-21T15:31:33;2.50;;;0.50;;
21339;SDS011;10828;47.064;15.422;2022-09-21T15:34:02;1.57;;;0.57;;
21339;SDS011;10828;47.064;15.422;2022-09-21T15:36:30;8.20;;;0.90;;
21339;SDS011;10828;47.064;15.422;2022-09-21T15:38:59;1.53;;;0.50;;
21339;SDS011;10828;47.064;15.422;2022-09-21T15:41:42;1.60;;;0.60;;
21339;SDS011;10828;47.064;15.422;2022-09-21T15:44:15;2.67;;;0.53;;
21339;SDS011;10828;47.064;15.422;2022-09-21T15:46:45;7.07;;;1.03;;
21339;SDS011;10828;47.064;15.422;2022-09-21T15:49:16;1.43;;;0.50;;
21339;SDS011;10828;47.064;15.422;2022-09-21T15:51:56;1.60;;;0.50;;
21339;SDS011;10828;47.064;15.422;2022-09-21T15:54:30;2.80;;;0.67;;
21339;SDS011;10828;47.064;15.422;2022-09-21T15:56:58;0.57;;;0.37;;
21339;SDS011;10828;47.064;15.422;2022-09-21T15:59:25;1.47;;;0.50;;
21339;SDS011;10828;47.064;15.422;2022-09-21T16:01:54;2.00;;;0.57;;
21339;SDS011;10828;47.064;15.422;2022-09-21T16:04:23;4.67;;;0.70;;
21339;SDS011;10828;47.064;15.422;2022-09-21T16:09:45;0.57;;;0.40;;
21339;SDS011;10828;47.064;15.422;2022-09-21T16:15:04;1.27;;;0.60;;
21339;SDS011;10828;47.064;15.422;2022-09-21T16:17:35;1.20;;;0.47;;
21339;SDS011;10828;47.064;15.422;2022-09-21T16:20:05;2.07;;;0.50;;
21339;SDS011;10828;47.064;15.422;2022-09-21T16:22:39;1.33;;;0.50;;
21339;SDS011;10828;47.064;15.422;2022-09-21T16:25:41;1.57;;;0.60;;
21339;SDS011;10828;47.064;15.422;2022-09-21T16:30:48;1.83;;;0.50;;
21339;SDS011;10828;47.064;15.422;2022-09-21T16:38:45;2.17;;;0.80;;
21339;SDS011;10828;47.064;15.422;2022-09-21T16:41:23;4.77;;;0.60;;
21339;SDS011;10828;47.064;15.422;2022-09-21T16:43:50;2.77;;;0.37;;
21339;SDS011;10828;47.064;15.422;2022-09-21T16:46:19;7.67;;;1.60;;
21339;SDS011;10828;47.064;15.422;2022-09-21T16:48:47;2.93;;;0.60;;
21339;SDS011;10828;47.064;15.422;2022-09-21T16:51:16;1.00;;;0.40;;
21339;SDS011;10828;47.064;15.422;2022-09-21T16:53:50;2.33;;;0.50;;
21339;SDS011;10828;47.064;15.422;2022-09-21T16:56:18;2.93;;;0.67;;
21339;SDS011;10828;47.064;15.422;2022-09-21T16:58:45;3.20;;;0.60;;
21339;SDS011;10828;47.064;15.422;2022-09-21T17:01:14;2.80;;;0.70;;
21339;SDS011;10828;47.064;15.422;2022-09-21T17:03:51;3.63;;;0.63;;
21339;SDS011;10828;47.064;15.422;2022-09-21T17:06:20;3.53;;;1.33;;
21339;SDS011;10828;47.064;15.422;2022-09-21T17:08:47;5.10;;;0.90;;
21339;SDS011;10828;47.064;15.422;2022-09-21T17:11:18;3.77;;;1.00;;
21339;SDS011;10828;47.064;15.422;2022-09-21T17:13:45;1.97;;;0.83;;
21339;SDS011;10828;47.064;15.422;2022-09-21T17:16:13;1.33;;;0.70;;
21339;SDS011;10828;47.064;15.422;2022-09-21T17:18:47;1.40;;;0.60;;
21339;SDS011;10828;47.064;15.422;2022-09-21T17:21:14;4.97;;;0.97;;
21339;SDS011;10828;47.064;15.422;2022-09-21T17:23:41;3.80;;;1.00;;
21339;SDS011;10828;47.064;15.422;2022-09-21T17:26:16;2.33;;;0.70;;
21339;SDS011;10828;47.064;15.422;2022-09-21T17:28:47;2.27;;;0.80;;
21339;SDS011;10828;47.064;15.422;2022-09-21T17:31:14;5.50;;;0.80;;
21339;SDS011;10828;47.064;15.422;2022-09-21T17:36:12;3.87;;;0.87;;
21339;SDS011;10828;47.064;15.422;2022-09-21T17:38:40;1.67;;;0.73;;
21339;SDS011;10828;47.064;15.422;2022-09-21T17:41:13;5.10;;;0.73;;
21339;SDS011;10828;47.064;15.422;2022-09-21T17:43:46;1.57;;;0.60;;
21339;SDS011;10828;47.064;15.422;2022-09-21T17:46:22;7.10;;;1.37;;
21339;SDS011;10828;47.064;15.422;2022-09-21T17:48:51;3.20;;;1.03;;
21339;SDS011;10828;47.064;15.422;2022-09-21T17:51:19;4.20;;;0.93;;
21339;SDS011;10828;47.064;15.422;2022-09-21T17:54:06;4.43;;;1.23;;
21339;SDS011;10828;47.064;15.422;2022-09-21T17:57:25;4.00;;;1.10;;
21339;SDS011;10828;47.064;15.422;2022-09-21T18:01:53;18.20;;;7.10;;
21339;SDS011;10828;47.064;15.422;2022-09-21T18:04:28;3.83;;;1.50;;
21339;SDS011;10828;47.064;15.422;2022-09-21T18:06:58;4.33;;;1.00;;
21339;SDS011;10828;47.064;15.422;2022-09-21T18:09:34;3.53;;;1.00;;
21339;SDS011;10828;47.064;15.422;2022-09-21T18:14:31;2.40;;;1.00;;
21339;SDS011;10828;47.064;15.422;2022-09-21T18:24:56;8.03;;;1.23;;
21339;SDS011;10828;47.064;15.422;2022-09-21T18:27:31;5.47;;;1.70;;
21339;SDS011;10828;47.064;15.422;2022-09-21T18:29:59;2.20;;;1.00;;